Time;durP1;ratioP1;P1;durP2;ratioP2;P2;SDS_P1;SDS_P2;PMS_P1;PMS_P2;Temp;Humidity;BMP_temperature;BMP_pressure;BME280_temperature;BME280_humidity;BME280_pressure;Samples;Min_cycle;Max_cycle;Signal;HPM_P1;HPM_P2
2024/03/21 00:01:33;;;;;;;14.93;9.23;;;10.30;99.60;;;;;;5041456;28;20068;-65
2024/03/21 00:03:59;;;;;;;15.10;9.07;;;10.30;99.60;;;;;;5035266;28;20048;-65
2024/03/21 00:06:25;;;;;;;15.75;9.23;;;10.40;99.70;;;;;;5028304;28;20021;-64
2024/03/21 00:08:51;;;;;;;18.05;10.23;;;10.30;99.70;;;;;;5036872;28;20048;-65
2024/03/21 00:11:16;;;;;;;16.38;9.75;;;10.30;99.70;;;;;;5028814;28;20025;-65
2024/03/21 00:13:42;;;;;;;16.85;9.88;;;10.30;99.70;;;;;;5033823;28;20114;-66
2024/03/21 00:16:07;;;;;;;16.23;9.90;;;10.30;99.80;;;;;;5036404;28;20052;-64
2024/03/21 00:18:33;;;;;;;16.83;9.88;;;10.30;99.80;;;;;;5030098;28;20036;-65
2024/03/21 00:20:58;;;;;;;17.17;9.38;;;10.20;99.90;;;;;;5035731;28;20041;-66
2024/03/21 00:23:25;;;;;;;22.38;10.18;;;10.20;99.90;;;;;;5034614;28;20025;-65
2024/03/21 00:25:50;;;;;;;18.27;10.40;;;10.20;99.90;;;;;;5032037;28;20116;-66
2024/03/21 00:28:16;;;;;;;17.13;10.00;;;10.20;99.90;;;;;;5036149;28;20037;-65
2024/03/21 00:30:43;;;;;;;16.42;9.27;;;10.10;99.90;;;;;;5030281;28;20025;-65
2024/03/21 00:33:10;;;;;;;16.92;9.13;;;10.20;99.90;;;;;;5035137;28;20485;-65
2024/03/21 00:35:36;;;;;;;14.85;8.98;;;10.10;99.90;;;;;;5029421;28;20022;-65
2024/03/21 00:38:01;;;;;;;15.57;8.57;;;10.10;99.90;;;;;;5037745;28;20094;-65
2024/03/21 00:40:27;;;;;;;17.75;9.50;;;10.10;99.90;;;;;;5039787;28;20029;-64
2024/03/21 00:42:52;;;;;;;14.65;9.35;;;10.10;99.90;;;;;;5031739;28;20131;-65
2024/03/21 00:45:18;;;;;;;17.33;9.65;;;10.10;99.90;;;;;;5043418;28;20030;-66
2024/03/21 00:47:44;;;;;;;18.02;9.75;;;10.10;99.90;;;;;;5040016;28;20426;-66
2024/03/21 00:50:10;;;;;;;18.23;9.27;;;10.20;99.90;;;;;;5031529;28;20116;-64
2024/03/21 00:52:35;;;;;;;18.23;9.82;;;10.10;99.90;;;;;;5035475;28;20044;-64
2024/03/21 00:55:01;;;;;;;16.30;9.73;;;10.10;99.90;;;;;;5038375;28;20111;-65
2024/03/21 00:57:27;;;;;;;21.45;10.82;;;10.10;99.90;;;;;;5036637;28;20142;-65
2024/03/21 00:59:53;;;;;;;16.70;9.00;;;10.10;99.90;;;;;;5037394;28;20033;-64
2024/03/21 01:02:19;;;;;;;17.30;9.00;;;10.10;99.90;;;;;;5041871;28;21641;-65
2024/03/21 01:04:50;;;;;;;16.35;9.40;;;10.10;99.90;;;;;;5038707;28;20028;-66
2024/03/21 01:07:17;;;;;;;;;;;10.10;99.90;;;;;;5031558;28;20081;-65
2024/03/21 01:09:43;;;;;;;14.77;8.02;;;10.10;99.90;;;;;;5026612;28;20398;-65
2024/03/21 01:12:09;;;;;;;15.63;8.55;;;10.10;99.90;;;;;;5032644;28;20057;-65
2024/03/21 01:14:34;;;;;;;21.42;10.25;;;10.10;99.90;;;;;;5028398;28;20056;-65
2024/03/21 01:17:00;;;;;;;14.68;8.65;;;10.10;99.90;;;;;;5029496;28;20518;-65
2024/03/21 01:19:25;;;;;;;16.77;9.57;;;10.10;99.90;;;;;;5041191;28;20129;-65
2024/03/21 01:21:51;;;;;;;16.88;9.55;;;10.10;99.90;;;;;;5033603;28;20112;-68
2024/03/21 01:24:17;;;;;;;17.55;9.43;;;10.10;99.90;;;;;;5041700;28;20044;-64
2024/03/21 01:26:43;;;;;;;18.13;9.10;;;10.10;99.90;;;;;;5039260;28;20114;-65
2024/03/21 01:29:08;;;;;;;18.88;9.38;;;10.10;99.90;;;;;;5040866;28;20038;-65
2024/03/21 01:31:33;;;;;;;19.17;9.90;;;10.10;99.90;;;;;;5047016;28;20045;-65
2024/03/21 01:33:59;;;;;;;21.95;10.82;;;10.10;99.90;;;;;;5040561;28;20086;-66
2024/03/21 01:36:24;;;;;;;17.20;8.82;;;10.10;99.90;;;;;;5033814;28;20029;-66
2024/03/21 01:38:50;;;;;;;17.30;9.70;;;10.10;99.90;;;;;;5034230;28;20037;-66
2024/03/21 01:41:15;;;;;;;18.70;8.95;;;10.10;99.90;;;;;;5034344;28;20449;-65
2024/03/21 01:43:41;;;;;;;17.25;9.20;;;10.10;99.90;;;;;;5033460;28;20133;-65
2024/03/21 01:46:17;;;;;;;16.95;9.55;;;10.10;99.90;;;;;;5035179;28;20029;-65
2024/03/21 01:48:48;;;;;;;24.10;10.60;;;10.10;99.90;;;;;;5029204;28;20040;-65
2024/03/21 01:51:14;;;;;;;16.63;9.48;;;10.00;99.90;;;;;;5035298;28;20072;-65
2024/03/21 01:53:45;;;;;;;17.58;10.00;;;10.00;99.90;;;;;;5033006;28;20167;-64
2024/03/21 01:56:10;;;;;;;16.40;8.68;;;10.00;99.90;;;;;;5027909;28;20136;-65
2024/03/21 01:58:36;;;;;;;17.98;8.98;;;10.10;99.90;;;;;;5033960;28;20119;-66
2024/03/21 02:01:15;;;;;;;16.08;8.93;;;10.10;99.90;;;;;;5046607;28;20041;-65
2024/03/21 02:03:40;;;;;;;21.25;10.27;;;10.10;99.90;;;;;;5030246;28;20529;-65
2024/03/21 02:06:06;;;;;;;17.23;9.55;;;10.00;99.90;;;;;;5041794;28;20033;-65
2024/03/21 02:08:32;;;;;;;20.33;10.43;;;10.00;99.90;;;;;;5031959;28;20417;-65
2024/03/21 02:10:58;;;;;;;17.67;10.00;;;10.00;99.90;;;;;;5037417;28;20099;-65
2024/03/21 02:13:23;;;;;;;16.08;8.82;;;10.00;99.90;;;;;;5041635;28;20041;-65
2024/03/21 02:15:49;;;;;;;17.60;9.15;;;10.00;99.90;;;;;;5030408;28;20045;-65
2024/03/21 02:18:15;;;;;;;28.88;10.48;;;10.00;99.90;;;;;;5032862;28;20034;-66
2024/03/21 02:20:41;;;;;;;15.68;9.52;;;10.00;99.90;;;;;;5035935;28;20057;-66
2024/03/21 02:23:06;;;;;;;18.65;9.57;;;9.90;99.90;;;;;;5037659;28;20034;-66
2024/03/21 02:25:32;;;;;;;17.15;8.82;;;9.90;99.90;;;;;;5034996;28;20037;-66
2024/03/21 02:27:58;;;;;;;17.58;9.27;;;10.00;99.90;;;;;;5027422;28;20339;-67
2024/03/21 02:30:23;;;;;;;16.88;9.75;;;9.90;99.90;;;;;;5039345;28;20466;-65
2024/03/21 02:32:49;;;;;;;17.25;9.40;;;9.90;99.90;;;;;;5030892;28;20044;-65
2024/03/21 02:35:14;;;;;;;17.25;8.88;;;9.90;99.90;;;;;;5035142;28;20075;-66
2024/03/21 02:37:39;;;;;;;19.50;10.25;;;9.90;99.90;;;;;;5039931;28;20148;-65
2024/03/21 02:40:06;;;;;;;18.40;10.38;;;9.90;99.90;;;;;;5029214;28;20123;-65
2024/03/21 02:42:31;;;;;;;16.05;8.88;;;9.90;99.90;;;;;;5029445;28;20073;-66
2024/03/21 02:44:57;;;;;;;17.73;9.93;;;9.90;99.90;;;;;;5030759;28;20094;-67
2024/03/21 02:47:22;;;;;;;17.70;9.32;;;9.90;99.90;;;;;;5032905;28;20037;-66
2024/03/21 02:49:47;;;;;;;16.67;9.95;;;9.90;99.90;;;;;;5031231;28;20112;-65
2024/03/21 02:52:13;;;;;;;19.95;10.43;;;9.80;99.90;;;;;;5030737;28;20033;-66
2024/03/21 02:54:38;;;;;;;17.33;9.88;;;9.80;99.90;;;;;;5026508;28;20109;-66
2024/03/21 02:57:08;;;;;;;15.50;8.05;;;9.80;99.90;;;;;;5033633;28;20513;-66
2024/03/21 02:59:33;;;;;;;17.67;7.63;;;9.90;99.90;;;;;;5036082;28;20164;-66
2024/03/21 03:01:59;;;;;;;15.38;7.72;;;9.90;99.90;;;;;;5037734;28;20093;-66
2024/03/21 03:04:24;;;;;;;14.20;7.53;;;9.90;99.90;;;;;;5033172;28;20554;-65
2024/03/21 03:06:50;;;;;;;17.45;8.32;;;9.90;99.90;;;;;;5031538;28;20048;-66
2024/03/21 03:09:15;;;;;;;15.48;8.23;;;9.90;99.90;;;;;;5027153;28;20093;-66
2024/03/21 03:11:41;;;;;;;15.30;8.02;;;9.90;99.90;;;;;;5032017;28;20037;-65
2024/03/21 03:14:06;;;;;;;16.85;9.13;;;9.90;99.90;;;;;;5028476;28;20128;-65
2024/03/21 03:16:32;;;;;;;15.38;8.50;;;9.90;99.90;;;;;;5031901;28;20087;-65
2024/03/21 03:18:59;;;;;;;15.18;8.38;;;10.00;99.90;;;;;;5026960;28;20052;-66
2024/03/21 03:21:24;;;;;;;16.25;8.80;;;9.90;99.90;;;;;;5032867;28;20488;-65
2024/03/21 03:23:50;;;;;;;17.67;9.02;;;9.90;99.90;;;;;;5036604;28;20096;-65
2024/03/21 03:26:15;;;;;;;16.52;8.95;;;9.90;99.90;;;;;;5027000;28;20403;-66
2024/03/21 03:28:40;;;;;;;18.85;8.98;;;9.90;99.90;;;;;;5025701;28;20044;-66
2024/03/21 03:31:06;;;;;;;17.27;9.13;;;9.90;99.90;;;;;;5032848;28;20025;-65
2024/03/21 03:36:15;;;;;;;19.73;9.68;;;9.90;99.90;;;;;;5030967;28;20160;-66
2024/03/21 03:38:41;;;;;;;17.90;9.13;;;9.90;99.90;;;;;;5040821;28;20202;-66
2024/03/21 03:41:06;;;;;;;17.58;9.20;;;9.90;99.90;;;;;;5026553;28;20113;-65
2024/03/21 03:43:32;;;;;;;18.70;8.73;;;9.90;99.90;;;;;;5034900;28;20061;-66
2024/03/21 03:45:57;;;;;;;16.02;7.40;;;9.80;99.90;;;;;;5040753;28;20099;-66
2024/03/21 03:48:23;;;;;;;17.25;8.82;;;9.90;99.90;;;;;;5038460;28;20053;-66
2024/03/21 03:50:48;;;;;;;13.32;7.15;;;9.80;99.90;;;;;;5029156;28;20037;-65
2024/03/21 03:53:14;;;;;;;17.10;8.63;;;9.80;99.90;;;;;;5036336;28;20037;-66
2024/03/21 03:55:39;;;;;;;14.98;8.00;;;9.80;99.90;;;;;;5032947;28;20033;-65
2024/03/21 03:58:05;;;;;;;14.32;7.88;;;9.80;99.90;;;;;;5028340;28;20097;-66
2024/03/21 04:00:30;;;;;;;15.75;8.30;;;9.80;99.90;;;;;;5034242;28;20087;-66
2024/03/21 04:02:56;;;;;;;15.55;7.60;;;9.80;99.90;;;;;;5037830;28;20194;-66
2024/03/21 04:05:21;;;;;;;14.45;6.78;;;9.80;99.90;;;;;;5037026;28;20040;-67
2024/03/21 04:07:47;;;;;;;15.45;7.78;;;9.70;99.90;;;;;;5040882;28;20108;-67
2024/03/21 04:10:13;;;;;;;17.10;8.23;;;9.70;99.90;;;;;;5028650;28;20048;-66
2024/03/21 04:12:40;;;;;;;15.57;8.32;;;9.80;99.90;;;;;;5037866;28;20029;-66
2024/03/21 04:15:06;;;;;;;16.65;7.78;;;9.70;99.90;;;;;;5037862;28;20116;-67
2024/03/21 04:17:32;;;;;;;16.92;8.27;;;9.70;99.90;;;;;;5035731;28;20037;-66
2024/03/21 04:19:57;;;;;;;14.52;8.25;;;9.70;99.90;;;;;;5039028;28;20033;-66
2024/03/21 04:22:23;;;;;;;18.42;9.00;;;9.70;99.90;;;;;;5042487;28;20056;-66
2024/03/21 04:24:48;;;;;;;15.55;9.15;;;9.70;99.90;;;;;;5039979;28;20060;-66
2024/03/21 04:27:14;;;;;;;15.68;8.25;;;9.70;99.90;;;;;;5036992;28;20489;-66
2024/03/21 04:29:39;;;;;;;14.70;8.38;;;9.70;99.90;;;;;;5038195;28;20098;-66
2024/03/21 04:32:05;;;;;;;15.35;8.38;;;9.70;99.90;;;;;;5037099;28;20037;-66
2024/03/21 04:34:31;;;;;;;15.93;8.85;;;9.70;99.90;;;;;;5041693;28;20112;-67
2024/03/21 04:36:56;;;;;;;18.98;9.50;;;9.70;99.90;;;;;;5037824;28;20073;-65
2024/03/21 04:39:21;;;;;;;15.52;8.85;;;9.70;99.90;;;;;;5046369;28;20040;-67
2024/03/21 04:41:47;;;;;;;15.10;8.38;;;9.70;99.90;;;;;;5038416;28;20083;-66
2024/03/21 04:44:12;;;;;;;18.70;9.43;;;9.70;99.90;;;;;;5033810;28;20037;-67
2024/03/21 04:46:38;;;;;;;16.85;8.50;;;9.70;99.90;;;;;;5044331;28;20141;-66
2024/03/21 04:49:03;;;;;;;17.30;9.30;;;9.70;99.90;;;;;;5042311;28;20047;-67
2024/03/21 04:51:29;;;;;;;17.90;8.30;;;9.70;99.90;;;;;;5039270;28;20036;-66
2024/03/21 04:53:54;;;;;;;18.02;8.10;;;9.70;99.90;;;;;;5038685;28;20056;-66
2024/03/21 04:56:20;;;;;;;17.42;8.55;;;9.70;99.90;;;;;;5032815;28;20134;-66
2024/03/21 04:58:45;;;;;;;13.95;7.30;;;9.70;99.90;;;;;;5037069;28;20327;-66
2024/03/21 05:01:11;;;;;;;15.25;7.55;;;9.70;99.90;;;;;;5036180;28;20025;-67
2024/03/21 05:03:37;;;;;;;14.57;6.85;;;9.80;99.90;;;;;;5035453;28;20063;-66
2024/03/21 05:06:05;;;;;;;12.73;6.35;;;9.70;99.90;;;;;;5029074;28;20032;-66
2024/03/21 05:08:31;;;;;;;11.35;6.65;;;9.70;99.90;;;;;;5035594;28;20037;-66
2024/03/21 05:10:56;;;;;;;14.43;7.78;;;9.70;99.90;;;;;;5040268;28;20551;-66
2024/03/21 05:13:22;;;;;;;13.05;7.28;;;9.70;99.90;;;;;;5036179;28;20116;-66
2024/03/21 05:15:51;;;;;;;13.23;6.60;;;9.70;99.90;;;;;;5043439;28;20079;-66
2024/03/21 05:18:17;;;;;;;10.25;5.57;;;9.70;99.90;;;;;;5031840;28;20139;-66
2024/03/21 05:20:43;;;;;;;10.27;5.50;;;9.70;99.90;;;;;;5040737;28;20136;-66
2024/03/21 05:23:08;;;;;;;15.07;7.07;;;9.70;99.90;;;;;;5035318;28;20437;-66
2024/03/21 05:25:38;;;;;;;14.52;6.65;;;9.70;99.90;;;;;;5030543;28;21697;-66
2024/03/21 05:28:04;;;;;;;9.93;5.32;;;9.70;99.90;;;;;;5036468;28;20110;-66
2024/03/21 05:30:30;;;;;;;11.02;5.32;;;9.70;99.90;;;;;;5030165;28;20044;-65
2024/03/21 05:32:56;;;;;;;9.70;5.10;;;9.60;99.90;;;;;;5035184;28;20056;-65
2024/03/21 05:35:24;;;;;;;8.73;4.72;;;9.70;99.90;;;;;;5031127;28;20041;-65
2024/03/21 05:37:50;;;;;;;9.93;4.80;;;9.70;99.90;;;;;;5043602;28;20101;-64
2024/03/21 05:40:15;;;;;;;9.18;4.68;;;9.60;99.90;;;;;;5032531;28;20037;-65
2024/03/21 05:42:42;;;;;;;8.60;4.35;;;9.60;99.90;;;;;;5028582;28;20061;-66
2024/03/21 05:45:08;;;;;;;8.13;4.65;;;9.60;99.90;;;;;;5035039;28;20029;-64
2024/03/21 05:47:34;;;;;;;9.55;3.53;;;9.60;99.90;;;;;;5040566;28;20029;-66
2024/03/21 05:49:59;;;;;;;7.32;4.30;;;9.60;99.90;;;;;;5042619;28;20033;-64
2024/03/21 05:52:25;;;;;;;9.18;4.60;;;9.60;99.90;;;;;;5036152;28;20886;-65
2024/03/21 05:54:51;;;;;;;7.47;3.08;;;9.60;99.90;;;;;;5034536;28;20039;-64
2024/03/21 05:57:17;;;;;;;6.25;3.22;;;9.50;99.90;;;;;;5028112;28;20034;-64
2024/03/21 05:59:43;;;;;;;6.97;3.42;;;9.60;99.90;;;;;;5041750;28;20057;-65
2024/03/21 06:02:08;;;;;;;7.30;3.15;;;9.60;99.60;;;;;;5038986;28;20040;-64
2024/03/21 06:04:35;;;;;;;6.00;3.30;;;9.50;99.60;;;;;;5033099;28;20039;-64
2024/03/21 06:07:00;;;;;;;6.25;3.33;;;9.60;99.60;;;;;;5028352;28;20560;-64
2024/03/21 06:09:28;;;;;;;6.93;3.20;;;9.50;99.60;;;;;;5040610;28;20095;-65
2024/03/21 06:11:54;;;;;;;8.60;3.55;;;9.50;99.70;;;;;;5040211;28;20433;-65
2024/03/21 06:14:19;;;;;;;7.85;3.60;;;9.50;99.80;;;;;;5047237;28;20090;-64
2024/03/21 06:16:45;;;;;;;7.65;3.83;;;9.50;99.90;;;;;;5032350;28;20056;-64
2024/03/21 06:19:10;;;;;;;5.97;3.13;;;9.10;99.10;;;;;;5033582;28;20117;-65
2024/03/21 06:21:35;;;;;;;5.85;3.28;;;8.70;99.40;;;;;;5032638;28;20064;-65
2024/03/21 06:24:01;;;;;;;8.88;3.97;;;8.60;99.60;;;;;;5032266;28;20074;-67
2024/03/21 06:26:27;;;;;;;6.93;3.47;;;8.40;99.60;;;;;;5032167;28;20049;-65
2024/03/21 06:28:52;;;;;;;6.18;3.30;;;8.30;99.70;;;;;;5030158;28;20079;-66
2024/03/21 06:31:17;;;;;;;8.18;3.40;;;8.30;99.90;;;;;;5040989;28;20319;-66
2024/03/21 06:33:43;;;;;;;7.28;3.45;;;8.10;99.80;;;;;;5035172;28;20172;-64
2024/03/21 06:36:09;;;;;;;7.40;3.72;;;8.10;99.90;;;;;;5030197;28;20048;-64
2024/03/21 06:38:34;;;;;;;8.20;4.10;;;7.80;99.70;;;;;;5034706;28;22090;-65
2024/03/21 06:40:59;;;;;;;7.60;3.67;;;7.60;99.70;;;;;;5033049;28;20247;-67
2024/03/21 06:43:25;;;;;;;6.55;3.38;;;7.60;99.50;;;;;;5040085;28;20045;-65
2024/03/21 06:45:57;;;;;;;6.50;3.15;;;7.50;99.30;;;;;;5031640;28;20090;-66
2024/03/21 06:48:23;;;;;;;8.68;3.92;;;7.40;98.80;;;;;;5039807;28;20471;-66
2024/03/21 06:50:50;;;;;;;8.93;3.60;;;7.30;98.70;;;;;;5031629;28;20037;-66
2024/03/21 06:53:15;;;;;;;7.70;3.47;;;7.30;99.00;;;;;;5034307;28;20037;-65
2024/03/21 06:55:41;;;;;;;6.13;3.67;;;7.20;98.80;;;;;;5029038;28;20332;-66
2024/03/21 06:58:07;;;;;;;7.85;3.53;;;7.20;98.90;;;;;;5036486;28;20111;-66
2024/03/21 07:00:32;;;;;;;7.22;3.85;;;7.30;98.90;;;;;;5041819;28;20025;-66
2024/03/21 07:02:59;;;;;;;8.00;3.72;;;7.30;99.10;;;;;;5034762;28;20047;-66
2024/03/21 07:05:24;;;;;;;6.68;3.60;;;7.30;99.00;;;;;;5035395;28;20346;-66
2024/03/21 07:07:51;;;;;;;7.15;3.65;;;7.30;98.70;;;;;;5034095;28;20025;-65
2024/03/21 07:10:17;;;;;;;7.20;3.78;;;7.40;98.90;;;;;;5030728;28;20033;-66
2024/03/21 07:12:42;;;;;;;10.57;5.00;;;7.40;98.70;;;;;;5027872;28;20032;-64
2024/03/21 07:15:08;;;;;;;5.47;3.30;;;7.30;98.60;;;;;;5038193;28;20052;-66
2024/03/21 07:17:34;;;;;;;8.27;4.22;;;7.20;98.80;;;;;;5032541;28;20054;-66
2024/03/21 07:19:59;;;;;;;6.10;3.53;;;7.10;98.90;;;;;;5034760;28;20456;-67
2024/03/21 07:22:25;;;;;;;4.80;2.97;;;7.10;99.20;;;;;;5034152;28;20124;-66
2024/03/21 07:24:51;;;;;;;5.75;2.83;;;6.90;99.30;;;;;;5031970;28;20346;-66
2024/03/21 07:27:17;;;;;;;5.30;2.60;;;6.90;99.40;;;;;;5030261;28;20060;-65
2024/03/21 07:29:43;;;;;;;4.28;2.70;;;6.80;99.40;;;;;;5035812;28;20635;-66
2024/03/21 07:32:08;;;;;;;5.68;2.85;;;6.70;99.50;;;;;;5036203;28;20116;-66
2024/03/21 07:34:35;;;;;;;5.20;2.70;;;6.70;99.80;;;;;;5037836;28;20446;-66
2024/03/21 07:37:00;;;;;;;4.30;2.10;;;6.70;99.80;;;;;;5033577;28;20029;-66
2024/03/21 07:39:26;;;;;;;4.55;2.65;;;6.80;99.90;;;;;;5026705;28;20041;-67
2024/03/21 07:41:52;;;;;;;6.15;2.85;;;6.80;99.80;;;;;;5036185;28;20104;-67
2024/03/21 07:44:18;;;;;;;6.13;2.92;;;6.80;99.90;;;;;;5030372;28;20033;-66
2024/03/21 07:46:43;;;;;;;4.50;2.22;;;6.80;99.90;;;;;;5030153;28;20057;-66
2024/03/21 07:49:09;;;;;;;5.65;2.80;;;6.80;99.90;;;;;;5041972;28;20020;-68
2024/03/21 07:51:35;;;;;;;4.80;2.20;;;6.80;99.90;;;;;;5035779;28;20420;-65
2024/03/21 07:54:01;;;;;;;6.07;2.45;;;6.70;99.90;;;;;;5028785;28;20120;-67
2024/03/21 07:56:27;;;;;;;7.15;2.83;;;6.70;99.90;;;;;;5037353;28;20108;-66
2024/03/21 07:58:53;;;;;;;8.75;2.20;;;6.70;99.90;;;;;;5033052;28;20088;-66
2024/03/21 08:01:19;;;;;;;5.95;2.78;;;;;;;;;;5042415;28;20036;-66
2024/03/21 08:03:45;;;;;;;4.53;2.45;;;6.80;99.90;;;;;;5028429;28;20061;-66
2024/03/21 08:06:11;;;;;;;4.28;2.58;;;6.80;99.90;;;;;;5029906;28;20105;-67
2024/03/21 08:08:36;;;;;;;3.28;1.85;;;6.70;99.90;;;;;;5030165;28;20472;-66
2024/03/21 08:11:02;;;;;;;5.20;1.98;;;6.70;99.90;;;;;;5036012;28;20048;-67
2024/03/21 08:13:27;;;;;;;2.70;1.35;;;6.80;99.90;;;;;;5044266;28;20033;-67
2024/03/21 08:15:55;;;;;;;3.95;1.88;;;6.80;99.90;;;;;;5030833;28;20033;-66
2024/03/21 08:18:21;;;;;;;2.97;1.60;;;;;;;;;;5031979;28;20120;-66
2024/03/21 08:20:47;;;;;;;7.38;1.80;;;6.80;99.90;;;;;;5027098;28;20108;-66
2024/03/21 08:23:14;;;;;;;3.08;1.35;;;6.80;99.90;;;;;;5036387;28;20142;-66
2024/03/21 08:25:39;;;;;;;3.25;1.60;;;6.80;99.90;;;;;;5033549;28;20081;-66
2024/03/21 08:28:05;;;;;;;3.38;1.25;;;6.80;99.90;;;;;;5030340;28;20046;-66
2024/03/21 08:30:30;;;;;;;3.67;1.77;;;6.90;99.90;;;;;;5033731;28;20067;-67
2024/03/21 08:32:56;;;;;;;3.42;1.75;;;;;;;;;;5034045;28;20038;-66
2024/03/21 08:35:21;;;;;;;2.92;1.60;;;6.80;99.90;;;;;;5032142;28;20440;-67
2024/03/21 08:37:47;;;;;;;4.03;1.63;;;6.80;99.90;;;;;;5026290;28;20117;-66
2024/03/21 08:40:15;;;;;;;4.30;1.98;;;6.80;99.90;;;;;;5036323;28;20095;-67
2024/03/21 08:42:41;;;;;;;5.53;1.45;;;7.00;99.90;;;;;;5025654;28;20051;-67
2024/03/21 08:45:09;;;;;;;2.58;1.38;;;7.00;99.90;;;;;;5036063;28;20037;-66
2024/03/21 08:47:36;;;;;;;5.63;2.00;;;7.00;99.90;;;;;;5040201;28;20021;-66
2024/03/21 08:50:01;;;;;;;5.63;2.08;;;7.00;99.90;;;;;;5037821;28;20458;-67
2024/03/21 08:52:27;;;;;;;4.25;2.13;;;6.80;99.90;;;;;;5035510;28;20047;-66
2024/03/21 08:54:52;;;;;;;4.82;1.88;;;6.80;99.90;;;;;;5029225;28;20135;-66
2024/03/21 08:57:18;;;;;;;5.90;2.00;;;6.90;99.90;;;;;;5031103;28;20101;-66
2024/03/21 08:59:44;;;;;;;5.43;2.25;;;6.90;99.90;;;;;;5036351;28;20113;-67
2024/03/21 09:02:11;;;;;;;3.70;1.75;;;6.90;99.90;;;;;;5044196;28;20116;-66
2024/03/21 09:04:36;;;;;;;4.30;2.08;;;6.90;99.90;;;;;;5025937;28;20311;-65
2024/03/21 09:07:04;;;;;;;4.65;2.03;;;7.00;99.90;;;;;;5041441;28;20040;-66
2024/03/21 09:09:34;;;;;;;5.25;2.17;;;6.90;99.90;;;;;;5032402;28;20077;-66
2024/03/21 09:12:00;;;;;;;6.25;2.90;;;7.00;99.90;;;;;;5031709;28;20038;-66
2024/03/21 09:14:25;;;;;;;6.03;2.28;;;7.10;99.90;;;;;;5040239;28;20040;-66
2024/03/21 09:16:51;;;;;;;4.63;1.80;;;7.00;99.90;;;;;;5035516;28;20527;-67
2024/03/21 09:19:16;;;;;;;3.95;2.00;;;7.10;99.90;;;;;;5035769;28;20362;-67
2024/03/21 09:21:42;;;;;;;5.40;2.15;;;7.20;99.90;;;;;;5033895;28;20025;-66
2024/03/21 09:24:08;;;;;;;6.63;2.55;;;7.30;99.90;;;;;;5031177;28;20033;-66
2024/03/21 09:26:34;;;;;;;5.25;2.95;;;7.20;99.90;;;;;;5032944;28;20170;-66
2024/03/21 09:29:00;;;;;;;4.70;2.25;;;7.30;99.90;;;;;;5035152;28;20202;-66
2024/03/21 09:31:25;;;;;;;5.00;2.50;;;7.30;99.90;;;;;;5037825;28;20112;-66
2024/03/21 09:33:52;;;;;;;5.82;2.85;;;7.30;99.90;;;;;;5034775;28;20060;-66
2024/03/21 09:36:17;;;;;;;6.55;2.55;;;7.30;99.90;;;;;;5039010;28;20079;-66
2024/03/21 09:38:43;;;;;;;7.57;2.45;;;7.40;99.90;;;;;;5046801;28;20104;-66
2024/03/21 09:41:12;;;;;;;5.70;2.30;;;7.40;99.90;;;;;;5032825;28;20442;-66
2024/03/21 09:43:38;;;;;;;4.45;1.98;;;7.40;99.90;;;;;;5035933;28;20053;-66
2024/03/21 09:46:09;;;;;;;5.78;2.65;;;7.50;99.90;;;;;;5034589;28;20120;-66
2024/03/21 09:48:35;;;;;;;6.38;3.13;;;7.50;99.90;;;;;;5040569;28;20357;-66
2024/03/21 09:51:00;;;;;;;7.75;3.42;;;7.60;99.90;;;;;;5033812;28;20044;-67
2024/03/21 09:53:26;;;;;;;4.63;2.40;;;7.60;99.90;;;;;;5030589;28;20205;-65
2024/03/21 09:55:52;;;;;;;5.13;2.75;;;7.50;99.90;;;;;;5035642;28;20438;-66
2024/03/21 09:58:18;;;;;;;6.22;3.40;;;7.50;99.90;;;;;;5034278;28;20028;-65
2024/03/21 10:00:44;;;;;;;5.55;2.78;;;7.40;99.90;;;;;;5035245;28;20096;-66
2024/03/21 10:03:14;;;;;;;4.82;2.55;;;7.40;99.90;;;;;;5041120;28;20060;-66
2024/03/21 10:05:46;;;;;;;5.50;2.37;;;7.40;99.90;;;;;;5031803;28;20472;-66
2024/03/21 10:08:13;;;;;;;4.30;1.90;;;7.50;99.90;;;;;;5033663;28;20053;-66
2024/03/21 10:10:40;;;;;;;4.65;2.53;;;7.50;99.90;;;;;;5028020;28;20331;-66
2024/03/21 10:13:07;;;;;;;6.07;2.30;;;7.50;99.90;;;;;;5032342;28;20068;-66
2024/03/21 10:15:33;;;;;;;3.88;1.85;;;7.60;99.90;;;;;;5028140;28;20029;-66
2024/03/21 10:18:01;;;;;;;5.05;2.42;;;7.50;99.90;;;;;;5044317;28;20098;-66
2024/03/21 10:20:27;;;;;;;4.28;2.13;;;7.60;99.90;;;;;;5031790;28;20033;-67
2024/03/21 10:22:53;;;;;;;4.80;2.10;;;7.60;99.90;;;;;;5038083;28;20337;-66
2024/03/21 10:25:19;;;;;;;2.95;1.52;;;7.60;99.90;;;;;;5028718;28;20040;-66
2024/03/21 10:27:48;;;;;;;4.55;1.90;;;7.60;99.90;;;;;;5038957;28;20449;-67
2024/03/21 10:30:18;;;;;;;3.20;1.80;;;7.60;99.90;;;;;;5033436;28;20029;-65
2024/03/21 10:32:44;;;;;;;4.53;2.38;;;7.60;99.90;;;;;;5028589;28;20018;-68
2024/03/21 10:35:18;;;;;;;4.25;2.00;;;7.60;99.90;;;;;;5031772;28;20340;-65
2024/03/21 10:37:44;;;;;;;3.35;1.75;;;7.70;99.90;;;;;;5045286;28;20112;-65
2024/03/21 10:40:14;;;;;;;3.95;2.08;;;7.70;99.90;;;;;;5034031;28;20506;-65
2024/03/21 10:42:51;;;;;;;4.28;2.00;;;7.70;99.90;;;;;;5028286;28;20286;-65
2024/03/21 10:45:17;;;;;;;4.60;2.20;;;7.70;99.90;;;;;;5028890;28;20086;-66
2024/03/21 10:47:47;;;;;;;4.55;2.50;;;7.80;99.90;;;;;;5033446;28;20041;-66
2024/03/21 10:50:19;;;;;;;7.03;2.95;;;7.80;99.90;;;;;;5027350;28;20024;-66
2024/03/21 10:52:52;;;;;;;5.85;2.85;;;7.80;99.90;;;;;;5027092;28;20489;-65
2024/03/21 10:55:20;;;;;;;6.47;2.95;;;7.80;99.90;;;;;;5025847;28;20084;-66
2024/03/21 10:57:55;;;;;;;7.00;3.05;;;7.80;99.90;;;;;;5033649;28;20174;-66
2024/03/21 11:00:21;;;;;;;8.30;3.45;;;7.80;99.90;;;;;;5034044;28;20476;-66
2024/03/21 11:02:59;;;;;;;7.80;3.40;;;7.80;99.90;;;;;;5034625;28;20044;-66
2024/03/21 11:05:26;;;;;;;7.03;3.47;;;7.80;99.90;;;;;;5035546;28;20029;-66
2024/03/21 11:07:52;;;;;;;7.47;3.50;;;7.80;99.90;;;;;;5027318;28;20028;-66
2024/03/21 11:10:22;;;;;;;6.35;3.42;;;7.80;99.90;;;;;;5034294;28;20675;-67
2024/03/21 11:12:49;;;;;;;7.85;3.67;;;7.70;99.90;;;;;;5040033;28;20048;-66
2024/03/21 11:15:15;;;;;;;6.38;3.08;;;7.80;99.90;;;;;;5041779;28;20334;-66
2024/03/21 11:17:43;;;;;;;6.80;2.78;;;7.60;99.90;;;;;;5029858;28;20068;-67
2024/03/21 11:20:10;;;;;;;5.68;2.95;;;7.70;99.90;;;;;;5037095;28;20111;-66
2024/03/21 11:22:38;;;;;;;5.88;3.05;;;7.60;99.90;;;;;;5046654;28;20442;-66
2024/03/21 11:25:03;;;;;;;5.30;2.70;;;7.60;99.90;;;;;;5027753;28;20415;-66
2024/03/21 11:27:29;;;;;;;8.48;3.22;;;7.60;99.90;;;;;;5031569;28;20114;-66
2024/03/21 11:29:55;;;;;;;6.93;3.28;;;7.60;99.90;;;;;;5033455;28;20065;-66
2024/03/21 11:32:23;;;;;;;6.88;3.38;;;7.70;99.90;;;;;;5039743;28;20029;-66
2024/03/21 11:34:50;;;;;;;5.57;3.40;;;7.60;99.90;;;;;;5041523;28;20037;-66
2024/03/21 11:37:16;;;;;;;7.50;3.35;;;7.60;99.90;;;;;;5040887;28;20489;-66
2024/03/21 11:39:41;;;;;;;5.45;2.70;;;7.60;99.90;;;;;;5035695;28;20093;-66
2024/03/21 11:42:10;;;;;;;7.53;3.88;;;7.50;99.90;;;;;;5035408;28;20053;-67
2024/03/21 11:44:38;;;;;;;8.68;4.10;;;7.60;99.90;;;;;;5035254;28;20477;-66
2024/03/21 11:47:08;;;;;;;8.95;3.55;;;7.60;99.80;;;;;;5031134;28;20147;-66
2024/03/21 11:49:33;;;;;;;10.83;5.33;;;7.60;99.90;;;;;;5031940;28;20053;-66
2024/03/21 11:51:59;;;;;;;11.65;5.72;;;7.60;99.60;;;;;;5032268;28;20681;-67
2024/03/21 11:54:24;;;;;;;12.77;5.95;;;7.60;99.60;;;;;;5032437;28;20094;-67
2024/03/21 11:56:50;;;;;;;12.30;6.03;;;7.40;98.90;;;;;;5034752;28;20040;-68
2024/03/21 11:59:15;;;;;;;13.38;6.25;;;7.50;98.40;;;;;;5035857;28;20033;-67
2024/03/21 12:01:41;;;;;;;13.05;6.90;;;7.50;98.50;;;;;;5031683;28;20419;-66
2024/03/21 12:04:08;;;;;;;15.02;7.15;;;7.60;98.40;;;;;;5035550;28;20099;-66
2024/03/21 12:06:34;;;;;;;12.90;6.32;;;7.70;98.50;;;;;;5036206;28;20017;-67
2024/03/21 12:08:59;;;;;;;12.90;6.00;;;7.80;98.10;;;;;;5033262;28;20444;-66
2024/03/21 12:11:25;;;;;;;11.50;5.35;;;7.80;98.20;;;;;;5025922;28;20037;-66
2024/03/21 12:13:50;;;;;;;11.98;6.35;;;7.90;98.20;;;;;;5025267;28;20047;-66
2024/03/21 12:16:18;;;;;;;12.77;6.22;;;7.90;98.20;;;;;;5026122;28;20391;-67
2024/03/21 12:18:47;;;;;;;11.60;5.70;;;7.80;98.10;;;;;;5030377;28;20049;-68
2024/03/21 12:21:18;;;;;;;11.20;6.00;;;7.90;97.70;;;;;;5028557;28;20077;-66
2024/03/21 12:23:44;;;;;;;9.43;4.45;;;7.90;97.70;;;;;;5038910;28;20105;-65
2024/03/21 12:26:11;;;;;;;12.38;5.90;;;7.90;97.30;;;;;;5031717;28;20120;-64
2024/03/21 12:28:37;;;;;;;10.73;4.75;;;8.00;97.50;;;;;;5039703;28;20166;-63
2024/03/21 12:31:03;;;;;;;8.43;4.55;;;8.00;97.10;;;;;;5030798;28;20036;-63
2024/03/21 12:33:28;;;;;;;6.93;3.53;;;8.10;97.40;;;;;;5024907;28;20022;-63
2024/03/21 12:35:54;;;;;;;7.82;4.10;;;8.10;97.00;;;;;;5031285;28;20105;-64
2024/03/21 12:38:19;;;;;;;8.30;4.03;;;8.10;97.20;;;;;;5033124;28;20029;-63
2024/03/21 12:40:47;;;;;;;7.18;3.15;;;8.00;96.60;;;;;;5033370;28;20350;-63
2024/03/21 12:43:12;;;;;;;7.88;3.95;;;8.10;96.80;;;;;;5032488;28;20470;-63
2024/03/21 12:45:38;;;;;;;7.88;3.80;;;8.10;96.70;;;;;;5030267;28;20104;-62
2024/03/21 12:48:04;;;;;;;10.52;5.05;;;8.10;96.90;;;;;;5040516;28;20037;-63